Time;durP1;ratioP1;P1;durP2;ratioP2;P2;SDS_P1;SDS_P2;PMS_P1;PMS_P2;Temp;Humidity;BMP_temperature;BMP_pressure;BME280_temperature;BME280_humidity;BME280_pressure;Samples;Min_cycle;Max_cycle;Signal;HPM_P1;HPM_P2
2022/08/11 00:01:15;;;;;;;3.83;3.53;;;19.70;99.90;;;;;;5088523;28;20453;-84
2022/08/11 00:03:45;;;;;;;4.40;3.50;;;19.60;99.90;;;;;;5080890;28;20987;-85
2022/08/11 00:06:13;;;;;;;4.43;3.10;;;19.70;99.90;;;;;;5087780;28;20554;-84
2022/08/11 00:08:42;;;;;;;4.10;3.30;;;19.70;99.90;;;;;;5089950;28;20921;-86
2022/08/11 00:11:12;;;;;;;3.47;3.17;;;19.80;99.90;;;;;;5089844;28;20473;-84
2022/08/11 00:13:40;;;;;;;5.30;3.70;;;19.70;99.90;;;;;;5088014;28;20469;-84
2022/08/11 00:16:15;;;;;;;2.77;2.57;;;19.70;99.90;;;;;;5088779;28;20466;-84
2022/08/11 00:18:45;;;;;;;6.00;3.50;;;19.70;99.90;;;;;;5086630;28;20433;-84
2022/08/11 00:21:14;;;;;;;4.70;3.30;;;19.70;99.90;;;;;;5073445;28;20488;-85
2022/08/11 00:23:46;;;;;;;7.20;3.67;;;19.60;99.90;;;;;;5087133;28;20449;-84
2022/08/11 00:26:15;;;;;;;4.13;3.10;;;19.60;99.90;;;;;;5093186;28;20540;-83
2022/08/11 00:28:42;;;;;;;4.93;3.67;;;19.70;99.90;;;;;;5097212;28;20490;-83
2022/08/11 00:31:28;;;;;;;3.80;3.50;;;19.60;99.90;;;;;;5092458;28;20430;-82
2022/08/11 00:33:56;;;;;;;3.57;3.27;;;19.50;99.90;;;;;;5090600;28;20421;-82
2022/08/11 00:36:28;;;;;;;4.30;3.20;;;19.50;99.90;;;;;;5077777;28;20474;-83
2022/08/11 00:39:02;;;;;;;6.20;3.63;;;19.50;99.90;;;;;;5076893;28;20446;-85
2022/08/11 00:41:34;;;;;;;3.53;3.23;;;19.50;99.90;;;;;;5084082;28;20474;-85
2022/08/11 00:44:20;;;;;;;3.77;3.47;;;19.40;99.90;;;;;;5080948;28;20476;-85
2022/08/11 00:47:02;;;;;;;5.20;3.20;;;19.40;99.90;;;;;;5070987;28;20499;-85
2022/08/11 00:49:42;;;;;;;5.70;3.67;;;19.40;99.90;;;;;;5079864;28;20440;-85
2022/08/11 00:52:20;;;;;;;4.50;4.10;;;19.40;99.90;;;;;;5071664;28;20514;-84
2022/08/11 00:55:23;;;;;;;5.33;3.60;;;19.30;99.90;;;;;;5071729;28;20491;-84
2022/08/11 00:58:33;;;;;;;4.63;3.80;;;19.30;99.90;;;;;;5075402;28;20477;-85
2022/08/11 01:01:10;;;;;;;5.20;3.67;;;19.20;99.90;;;;;;5076400;28;20528;-84
2022/08/11 01:06:51;;;;;;;5.63;3.00;;;19.10;99.90;;;;;;5083680;28;20531;-76
2022/08/11 01:09:35;;;;;;;3.70;3.40;;;19.00;99.90;;;;;;5084185;28;20448;-75
2022/08/11 01:12:35;;;;;;;4.10;3.70;;;19.00;99.90;;;;;;5075401;28;20828;-77
2022/08/11 01:15:49;;;;;;;5.80;4.57;;;19.10;99.90;;;;;;5055206;28;20908;-73
2022/08/11 01:18:53;;;;;;;4.30;3.50;;;19.00;99.90;;;;;;5066175;28;20523;-72
2022/08/11 01:22:11;;;;;;;6.83;3.90;;;18.90;99.90;;;;;;5060910;28;20442;-71
2022/08/11 01:25:09;;;;;;;6.77;4.60;;;18.80;99.90;;;;;;5056178;28;21034;-74
2022/08/11 01:28:09;;;;;;;5.20;4.30;;;18.80;99.90;;;;;;5063123;28;20541;-73
2022/08/11 01:31:15;;;;;;;4.40;4.00;;;18.80;99.90;;;;;;5062785;28;20449;-74
2022/08/11 01:34:26;;;;;;;4.97;2.93;;;18.80;99.90;;;;;;5043365;28;20548;-75
2022/08/11 01:37:38;;;;;;;5.20;4.33;;;18.80;99.90;;;;;;5049614;28;21013;-76
2022/08/11 01:40:47;;;;;;;6.33;3.70;;;18.80;99.90;;;;;;5002738;28;21008;-75
2022/08/11 01:46:39;;;;;;;4.20;3.80;;;18.70;99.90;;;;;;5064427;28;20978;-75
2022/08/11 01:49:15;;;;;;;4.97;4.10;;;18.70;99.90;;;;;;5061561;28;20446;-75
2022/08/11 01:51:53;;;;;;;6.00;3.90;;;18.70;99.90;;;;;;5057427;28;20761;-75
2022/08/11 01:54:27;;;;;;;6.53;3.97;;;18.70;99.90;;;;;;5068983;28;20457;-73
2022/08/11 01:57:09;;;;;;;6.60;4.00;;;18.70;99.90;;;;;;5071836;28;20472;-74
2022/08/11 01:59:47;;;;;;;4.30;3.80;;;18.70;99.90;;;;;;5068286;28;20532;-77
2022/08/11 02:02:44;;;;;;;4.03;3.63;;;18.70;99.90;;;;;;5063030;28;20453;-74
2022/08/11 02:05:35;;;;;;;4.17;3.77;;;18.60;99.90;;;;;;5064742;28;20489;-74
2022/08/11 02:08:11;;;;;;;4.67;3.80;;;18.60;99.90;;;;;;5068703;28;20877;-75
2022/08/11 02:13:45;;;;;;;5.20;4.67;;;18.60;99.90;;;;;;5033934;28;20873;-76
2022/08/11 02:16:20;;;;;;;4.73;3.90;;;18.50;99.90;;;;;;5063495;28;20524;-73
2022/08/11 02:24:35;;;;;;;5.93;3.83;;;18.40;99.90;;;;;;5063192;28;21134;-74
2022/08/11 02:27:07;;;;;;;7.30;4.00;;;18.30;99.90;;;;;;5043555;28;20541;-76
2022/08/11 02:29:44;;;;;;;4.97;3.83;;;18.30;99.90;;;;;;5052049;28;20446;-73
2022/08/11 02:35:14;;;;;;;4.87;4.17;;;18.20;99.90;;;;;;5047936;28;20449;-74
2022/08/11 02:37:53;;;;;;;4.10;3.70;;;18.20;99.90;;;;;;5052578;28;20438;-73
2022/08/11 02:40:34;;;;;;;9.60;5.70;;;18.20;99.90;;;;;;5050170;28;20845;-76
2022/08/11 02:43:27;;;;;;;5.30;4.10;;;18.20;99.90;;;;;;5052121;28;20557;-73
2022/08/11 02:46:06;;;;;;;5.33;4.63;;;18.20;99.90;;;;;;5051843;28;20473;-77
2022/08/11 02:51:37;;;;;;;4.93;4.43;;;18.20;99.90;;;;;;5044098;28;20525;-76
2022/08/11 02:54:12;;;;;;;5.40;4.90;;;18.10;99.90;;;;;;5049428;28;20465;-76
2022/08/11 02:56:50;;;;;;;4.70;3.77;;;18.20;99.90;;;;;;5047419;28;20864;-76
2022/08/11 03:02:30;;;;;;;7.23;4.63;;;18.10;99.90;;;;;;5051416;28;20437;-77
2022/08/11 03:05:07;;;;;;;5.43;4.33;;;18.00;99.90;;;;;;5045847;28;20496;-76
2022/08/11 03:07:45;;;;;;;7.57;4.87;;;18.00;99.90;;;;;;5048701;28;20540;-73
2022/08/11 03:10:20;;;;;;;5.63;4.10;;;18.00;99.90;;;;;;5048140;28;20456;-76
2022/08/11 03:18:45;;;;;;;6.03;4.60;;;17.80;99.90;;;;;;5052814;28;20444;-72
2022/08/11 03:21:20;;;;;;;5.37;4.27;;;17.80;99.90;;;;;;5047496;28;20446;-75
2022/08/11 03:24:00;;;;;;;5.43;4.73;;;17.80;99.90;;;;;;5050837;28;20460;-74
2022/08/11 03:26:33;;;;;;;7.67;4.83;;;17.80;99.90;;;;;;5054239;28;20488;-73
2022/08/11 03:29:08;;;;;;;7.40;5.30;;;17.80;99.90;;;;;;5045351;28;20479;-73
2022/08/11 03:31:44;;;;;;;9.40;4.63;;;17.80;99.90;;;;;;5050499;28;20458;-75
2022/08/11 03:34:17;;;;;;;5.53;4.87;;;17.70;99.90;;;;;;5052642;28;20966;-74
2022/08/11 03:40:10;;;;;;;5.53;4.30;;;17.70;99.90;;;;;;5051333;28;20425;-74
2022/08/11 03:42:46;;;;;;;5.00;4.60;;;17.70;99.90;;;;;;5052764;28;20515;-75
2022/08/11 03:45:28;;;;;;;6.30;4.10;;;17.70;99.90;;;;;;5047224;28;20470;-76
2022/08/11 03:48:14;;;;;;;6.07;4.33;;;17.70;99.90;;;;;;5044585;28;20596;-77
2022/08/11 03:50:57;;;;;;;7.30;5.27;;;17.70;99.90;;;;;;5060430;28;20442;-73
2022/08/11 03:53:41;;;;;;;5.40;4.30;;;17.60;99.90;;;;;;5051376;28;20468;-75
2022/08/11 03:56:45;;;;;;;5.73;4.67;;;17.70;99.90;;;;;;5046570;28;20441;-74
2022/08/11 04:00:07;;;;;;;7.17;5.07;;;17.80;99.90;;;;;;5059147;28;20478;-75
2022/08/11 04:03:10;;;;;;;6.30;4.80;;;17.70;99.90;;;;;;5028136;28;20454;-73
2022/08/11 04:06:10;;;;;;;5.30;4.80;;;17.70;99.90;;;;;;5053996;28;20559;-75
2022/08/11 04:09:19;;;;;;;5.10;4.60;;;17.70;99.90;;;;;;5048051;28;20445;-75
2022/08/11 04:12:23;;;;;;;7.97;4.37;;;17.70;99.90;;;;;;5039214;28;20435;-76
2022/08/11 04:18:26;;;;;;;5.53;4.37;;;17.70;99.90;;;;;;5017475;28;20453;-76
2022/08/11 04:21:20;;;;;;;5.00;4.50;;;17.70;99.90;;;;;;5037284;28;20468;-77
2022/08/11 04:24:04;;;;;;;5.27;4.67;;;17.70;99.90;;;;;;5039423;28;20516;-74
2022/08/11 04:27:01;;;;;;;5.77;4.67;;;17.70;99.90;;;;;;5050000;28;20544;-74
2022/08/11 04:29:46;;;;;;;6.10;5.00;;;17.70;99.90;;;;;;5052573;28;20782;-75
2022/08/11 04:32:36;;;;;;;8.43;5.00;;;17.70;99.90;;;;;;5043379;28;20473;-74
2022/08/11 04:35:23;;;;;;;5.37;3.97;;;17.70;99.90;;;;;;5045882;28;20539;-74
2022/08/11 04:38:34;;;;;;;7.97;4.70;;;17.80;99.90;;;;;;5039225;28;20430;-75
2022/08/11 04:43:19;;;;;;;6.30;4.93;;;17.90;99.90;;;;;;5024676;28;20454;-77
2022/08/11 04:45:10;;;;;;;6.00;5.37;;;17.90;99.90;;;;;;5042632;28;20569;-74
2022/08/11 05:03:09;;;;;;;6.37;5.13;;;18.40;99.90;;;;;;5061422;28;20835;-76
2022/08/11 05:06:01;;;;;;;7.27;5.00;;;19.10;99.90;;;;;;5046082;28;20557;-74
2022/08/11 05:09:09;;;;;;;4.83;4.13;;;20.20;99.90;;;;;;5046218;28;20919;-76
2022/08/11 05:11:56;;;;;;;9.70;4.00;;;21.50;99.90;;;;;;5040310;28;20520;-77
2022/08/11 05:37:04;;;;;;;7.30;6.00;;;28.60;89.60;;;;;;5039377;28;20481;-73
2022/08/11 05:56:31;;;;;;;5.87;4.30;;;31.40;76.80;;;;;;5058682;28;20488;-77
2022/08/11 05:58:59;;;;;;;7.13;4.80;;;31.60;75.70;;;;;;5060606;28;20888;-74
2022/08/11 06:01:29;;;;;;;4.00;3.33;;;31.60;75.10;;;;;;5047084;28;20466;-75
2022/08/11 06:06:46;;;;;;;5.00;3.37;;;32.60;72.50;;;;;;5045367;28;20470;-76
2022/08/11 06:09:14;;;;;;;7.13;3.97;;;32.90;71.50;;;;;;5050986;28;20476;-77
2022/08/11 06:11:43;;;;;;;7.00;3.83;;;33.00;70.30;;;;;;5041778;28;20450;-74
2022/08/11 06:14:11;;;;;;;7.63;4.40;;;33.10;70.10;;;;;;5052967;28;20572;-74
2022/08/11 06:16:40;;;;;;;5.10;4.23;;;33.10;69.80;;;;;;5045268;28;20438;-76
2022/08/11 06:19:08;;;;;;;8.10;3.80;;;33.10;69.80;;;;;;5050341;28;20535;-74
2022/08/11 06:21:35;;;;;;;3.93;3.63;;;33.30;69.70;;;;;;5044161;28;20522;-73
2022/08/11 06:24:12;;;;;;;6.50;3.80;;;33.60;68.40;;;;;;5054228;28;20800;-73
2022/08/11 06:26:41;;;;;;;6.27;3.90;;;33.60;67.60;;;;;;5037215;28;20556;-74
2022/08/11 06:29:11;;;;;;;9.30;3.70;;;33.60;68.00;;;;;;5048487;28;20448;-73
2022/08/11 06:31:38;;;;;;;7.30;4.30;;;33.70;68.30;;;;;;5053297;28;20446;-75
2022/08/11 06:34:12;;;;;;;4.10;3.17;;;33.80;67.10;;;;;;5043306;28;20463;-76
2022/08/11 06:36:48;;;;;;;7.33;4.03;;;33.80;66.60;;;;;;5041270;28;20827;-76
2022/08/11 06:39:26;;;;;;;5.90;3.80;;;34.00;66.50;;;;;;5041671;28;20445;-72
2022/08/11 06:42:03;;;;;;;4.47;3.77;;;34.20;67.10;;;;;;5049472;28;20446;-75
2022/08/11 06:44:39;;;;;;;7.80;4.00;;;34.60;65.60;;;;;;5042668;28;20506;-74
2022/08/11 06:47:09;;;;;;;7.10;4.53;;;34.60;64.20;;;;;;5044529;28;20838;-74
2022/08/11 06:52:32;;;;;;;5.63;3.63;;;35.60;62.40;;;;;;5040884;28;20445;-74
2022/08/11 06:55:06;;;;;;;4.43;3.53;;;35.30;62.10;;;;;;5044389;28;20969;-72
2022/08/11 07:00:29;;;;;;;5.10;3.87;;;35.40;62.40;;;;;;5053623;28;20919;-77
2022/08/11 07:03:00;;;;;;;4.90;3.90;;;35.40;60.60;;;;;;5048603;28;20557;-74
2022/08/11 07:05:42;;;;;;;10.47;4.50;;;35.80;60.10;;;;;;5052399;28;20452;-73
2022/08/11 07:17:42;;;;;;;10.10;7.90;;;36.00;59.30;;;;;;5032676;28;20469;-73
2022/08/11 07:28:58;;;;;;;10.03;8.60;;;35.60;59.30;;;;;;5040703;28;20454;-75
2022/08/11 07:31:32;;;;;;;6.90;4.00;;;35.50;59.00;;;;;;5043469;28;20526;-75
2022/08/11 07:34:10;;;;;;;8.77;4.93;;;35.90;59.20;;;;;;5044648;28;20472;-76
2022/08/11 07:36:44;;;;;;;6.70;4.13;;;35.70;59.80;;;;;;5050078;28;20505;-75
2022/08/11 07:39:19;;;;;;;8.30;4.20;;;36.10;57.60;;;;;;5040479;28;20466;-74
2022/08/11 07:41:49;;;;;;;10.43;5.40;;;36.70;56.60;;;;;;5045125;28;20483;-73
2022/08/11 07:44:18;;;;;;;6.93;5.00;;;36.70;56.50;;;;;;5049323;28;20467;-73
2022/08/11 07:52:27;;;;;;;7.17;4.07;;;37.70;55.40;;;;;;5042650;28;20422;-74
2022/08/11 07:54:55;;;;;;;9.80;5.80;;;37.90;55.40;;;;;;5047410;28;20959;-74
2022/08/11 08:19:25;;;;;;;6.50;5.90;;;39.40;50.70;;;;;;5047705;28;20464;-75
2022/08/11 08:21:53;;;;;;;12.97;10.43;;;39.60;50.30;;;;;;5044513;28;20452;-74
2022/08/11 08:24:21;;;;;;;4.83;3.70;;;39.50;50.00;;;;;;5055118;28;20457;-73
2022/08/11 08:26:58;;;;;;;19.03;16.63;;;40.30;48.60;;;;;;5046100;28;20497;-73
2022/08/11 08:32:12;;;;;;;4.70;3.10;;;39.60;48.60;;;;;;5046360;28;20529;-75
2022/08/11 08:34:40;;;;;;;8.40;3.07;;;40.00;48.50;;;;;;5050320;28;20468;-77
2022/08/11 08:37:07;;;;;;;4.50;3.03;;;40.20;48.30;;;;;;5044803;28;20438;-73
2022/08/11 08:39:36;;;;;;;5.47;4.07;;;40.20;48.10;;;;;;5042108;28;20525;-74
2022/08/11 08:42:10;;;;;;;6.60;3.50;;;40.00;47.60;;;;;;5038908;28;20479;-75
2022/08/11 08:44:42;;;;;;;5.63;3.43;;;40.10;46.80;;;;;;5044366;28;20450;-76
2022/08/11 08:47:15;;;;;;;4.03;2.07;;;40.60;45.80;;;;;;5039132;28;20562;-72
2022/08/11 08:49:48;;;;;;;3.73;3.13;;;41.50;43.90;;;;;;5037656;28;20495;-73
2022/08/11 08:52:18;;;;;;;3.13;1.97;;;41.30;43.30;;;;;;5048128;28;20455;-74
2022/08/11 08:54:48;;;;;;;4.80;3.43;;;41.90;42.60;;;;;;5041633;28;20537;-75
2022/08/11 08:57:17;;;;;;;4.90;3.10;;;41.10;42.60;;;;;;5044944;28;20448;-75
2022/08/11 08:59:47;;;;;;;4.67;3.67;;;40.90;42.80;;;;;;5043119;28;20442;-76
2022/08/11 09:02:16;;;;;;;2.00;1.67;;;41.10;43.70;;;;;;5041981;28;21016;-75
2022/08/11 09:04:45;;;;;;;5.10;2.40;;;41.20;41.90;;;;;;5039938;28;20549;-77
2022/08/11 09:07:15;;;;;;;2.10;1.80;;;41.40;41.90;;;;;;5048423;28;20501;-73
2022/08/11 09:09:44;;;;;;;3.70;2.20;;;41.80;40.20;;;;;;5041371;28;20442;-75
2022/08/11 09:12:11;;;;;;;2.83;2.30;;;41.30;40.30;;;;;;5050016;28;20472;-76
2022/08/11 09:15:02;;;;;;;3.10;2.00;;;41.20;40.10;;;;;;5041891;28;20476;-76
2022/08/11 09:17:33;;;;;;;8.43;3.30;;;41.40;40.20;;;;;;5038738;28;20447;-75
2022/08/11 09:20:03;;;;;;;2.10;1.90;;;41.30;40.00;;;;;;5038420;28;20530;-74
2022/08/11 09:28:06;;;;;;;6.63;1.90;;;41.20;38.90;;;;;;5050181;28;20485;-77
2022/08/11 09:30:33;;;;;;;2.30;2.00;;;40.80;38.30;;;;;;5047309;28;20449;-73
2022/08/11 09:33:04;;;;;;;3.57;2.03;;;41.00;38.60;;;;;;5052800;28;20469;-75
2022/08/11 09:35:35;;;;;;;3.87;2.50;;;39.90;38.60;;;;;;5049641;28;20809;-74
2022/08/11 09:40:49;;;;;;;2.13;1.93;;;40.30;37.70;;;;;;5007400;28;20429;-76
2022/08/11 09:46:05;;;;;;;7.90;2.07;;;39.20;37.90;;;;;;5053090;28;20424;-76
2022/08/11 09:48:38;;;;;;;2.10;1.90;;;38.80;39.00;;;;;;5048541;28;20454;-77
2022/08/11 09:51:07;;;;;;;3.40;2.33;;;38.50;39.50;;;;;;5048672;28;20464;-73
2022/08/11 09:53:36;;;;;;;4.27;2.27;;;38.30;40.10;;;;;;5051191;28;20473;-78
2022/08/11 09:58:12;;;;;;;2.73;2.53;;;38.80;40.40;;;;;;5045786;28;20442;-77
2022/08/11 09:58:51;;;;;;;3.43;2.33;;;39.00;40.90;;;;;;5055018;28;20508;-77
2022/08/11 10:01:27;;;;;;;3.93;2.27;;;38.90;40.20;;;;;;5062361;28;20450;-75
2022/08/11 10:04:00;;;;;;;3.27;2.40;;;38.50;39.70;;;;;;5051696;28;20818;-75
2022/08/11 10:09:18;;;;;;;3.33;2.07;;;38.60;40.50;;;;;;5046248;28;20434;-77
2022/08/11 10:11:46;;;;;;;3.80;2.20;;;38.50;40.90;;;;;;5038250;28;20874;-76
2022/08/11 10:17:01;;;;;;;3.10;2.03;;;38.40;39.40;;;;;;5055530;28;20438;-78
2022/08/11 10:19:32;;;;;;;4.00;2.50;;;37.60;40.30;;;;;;5045177;28;20942;-77
2022/08/11 10:27:29;;;;;;;2.70;1.67;;;38.10;42.00;;;;;;5050807;28;20896;-77
2022/08/11 10:35:30;;;;;;;4.80;2.10;;;37.50;42.40;;;;;;5039809;28;20437;-76
2022/08/11 10:37:59;;;;;;;2.20;1.97;;;37.50;41.00;;;;;;5036096;28;20443;-76
2022/08/11 10:40:26;;;;;;;4.80;2.00;;;37.30;41.20;;;;;;5044424;28;20474;-78
2022/08/11 10:43:05;;;;;;;2.67;1.80;;;37.30;41.50;;;;;;5047864;28;20458;-80
2022/08/11 10:48:20;;;;;;;2.00;1.70;;;36.50;43.10;;;;;;5019070;28;20471;-80
2022/08/11 10:59:08;;;;;;;3.10;2.67;;;33.50;44.00;;;;;;5056922;28;20477;-77
2022/08/11 11:01:38;;;;;;;3.43;2.00;;;33.10;45.00;;;;;;5056128;28;20450;-78
2022/08/11 11:04:10;;;;;;;2.93;2.23;;;33.00;46.80;;;;;;5048676;28;20490;-75
2022/08/11 11:06:50;;;;;;;3.47;1.60;;;32.80;47.10;;;;;;5047885;28;20449;-74
2022/08/11 11:09:19;;;;;;;2.50;1.60;;;32.70;47.60;;;;;;5053060;28;20544;-77
2022/08/11 11:20:17;;;;;;;2.70;1.63;;;32.80;46.60;;;;;;5041836;28;20462;-76
2022/08/11 11:22:51;;;;;;;2.40;1.60;;;32.70;44.50;;;;;;5046945;28;20541;-76
2022/08/11 11:25:30;;;;;;;1.73;1.60;;;32.40;44.60;;;;;;5046830;28;20465;-77
2022/08/11 11:28:24;;;;;;;3.37;1.80;;;32.30;45.90;;;;;;5043795;28;20928;-77
2022/08/11 11:31:04;;;;;;;4.23;2.30;;;32.30;46.70;;;;;;5039886;28;20528;-76
2022/08/11 11:33:47;;;;;;;6.40;1.90;;;31.90;47.50;;;;;;5047742;28;20553;-76
2022/08/11 11:36:21;;;;;;;3.10;2.07;;;31.90;48.00;;;;;;5048030;28;20523;-76
2022/08/11 11:38:50;;;;;;;3.83;1.87;;;31.90;47.30;;;;;;5045990;28;20443;-77
2022/08/11 11:41:25;;;;;;;4.07;2.13;;;31.80;49.10;;;;;;5046282;28;20521;-77
2022/08/11 11:43:54;;;;;;;3.30;2.10;;;31.90;48.50;;;;;;5044670;28;20518;-76
2022/08/11 11:46:26;;;;;;;4.93;2.60;;;31.90;48.30;;;;;;5053090;28;20449;-74
2022/08/11 11:48:54;;;;;;;4.83;2.13;;;31.90;48.40;;;;;;5056891;28;20535;-77
2022/08/11 11:51:22;;;;;;;3.90;1.83;;;31.80;48.60;;;;;;5046865;28;20859;-78
2022/08/11 11:53:51;;;;;;;3.40;1.83;;;31.50;48.60;;;;;;5049137;28;20463;-76
2022/08/11 11:56:21;;;;;;;3.13;1.80;;;31.50;48.30;;;;;;5048746;28;20469;-78
2022/08/11 12:01:34;;;;;;;2.87;1.93;;;31.50;48.50;;;;;;5061854;28;20936;-76
2022/08/11 12:04:05;;;;;;;2.67;1.80;;;31.30;48.40;;;;;;5055709;28;20555;-76
2022/08/11 12:06:33;;;;;;;3.27;2.13;;;31.20;49.00;;;;;;5053710;28;20450;-77
2022/08/11 12:09:01;;;;;;;2.80;2.17;;;31.30;50.00;;;;;;5053132;28;20453;-77
2022/08/11 12:14:17;;;;;;;4.70;2.57;;;31.50;49.80;;;;;;5045970;28;20534;-76
2022/08/11 12:16:46;;;;;;;2.43;2.00;;;31.60;49.60;;;;;;5053106;28;20514;-76
2022/08/11 12:19:15;;;;;;;2.63;2.17;;;31.70;49.20;;;;;;5052358;28;20532;-78
2022/08/11 12:27:22;;;;;;;4.13;2.70;;;31.40;49.90;;;;;;5045928;28;20445;-76
2022/08/11 12:29:52;;;;;;;5.37;2.50;;;31.30;49.50;;;;;;5050336;28;20497;-76
2022/08/11 12:32:20;;;;;;;4.83;2.33;;;31.30;49.80;;;;;;5040337;28;20451;-77
2022/08/11 12:34:48;;;;;;;3.87;2.57;;;31.30;50.10;;;;;;5049214;28;20442;-76
2022/08/11 12:37:22;;;;;;;6.47;1.97;;;31.40;49.90;;;;;;5044890;28;20498;-78
2022/08/11 12:45:30;;;;;;;2.13;1.87;;;31.40;49.60;;;;;;5039264;28;20525;-77
2022/08/11 12:53:54;;;;;;;4.63;1.97;;;31.20;49.70;;;;;;5056408;28;20464;-77
2022/08/11 13:04:58;;;;;;;2.40;2.00;;;31.10;49.20;;;;;;5056976;28;20515;-75
2022/08/11 13:07:25;;;;;;;3.30;2.13;;;31.10;49.30;;;;;;5037449;28;21016;-76
2022/08/11 13:09:53;;;;;;;3.03;2.07;;;31.10;49.90;;;;;;5052326;28;20961;-77
2022/08/11 13:15:11;;;;;;;2.50;2.30;;;31.20;49.80;;;;;;5047540;28;20493;-77
2022/08/11 13:17:40;;;;;;;4.47;2.50;;;31.30;50.00;;;;;;5063451;28;20464;-77
2022/08/11 13:20:11;;;;;;;3.63;2.23;;;31.30;50.40;;;;;;5047804;28;20451;-77
2022/08/11 13:22:39;;;;;;;4.80;2.47;;;31.40;50.40;;;;;;5033332;28;20474;-77
2022/08/11 13:25:08;;;;;;;6.80;2.27;;;31.30;50.70;;;;;;5042223;28;20538;-76
2022/08/11 13:27:36;;;;;;;3.10;2.17;;;31.50;50.60;;;;;;5043143;28;20449;-76
2022/08/11 13:32:49;;;;;;;4.00;2.60;;;31.60;50.40;;;;;;5049293;28;20468;-77
2022/08/11 13:35:18;;;;;;;2.87;2.57;;;31.60;49.80;;;;;;5054279;28;20447;-78
2022/08/11 13:37:47;;;;;;;2.20;2.00;;;31.70;49.80;;;;;;5054574;28;20474;-77
2022/08/11 13:40:16;;;;;;;3.90;1.90;;;31.70;50.30;;;;;;5049164;28;20518;-77
2022/08/11 13:42:44;;;;;;;2.90;2.30;;;31.70;50.20;;;;;;5049408;28;20979;-76
2022/08/11 13:45:12;;;;;;;3.87;2.43;;;31.50;50.50;;;;;;5056799;28;20478;-76
2022/08/11 13:47:41;;;;;;;6.43;2.60;;;31.40;50.70;;;;;;5066483;28;20462;-78
2022/08/11 13:50:12;;;;;;;4.67;2.20;;;31.10;50.80;;;;;;5066910;28;20515;-76
2022/08/11 13:52:41;;;;;;;3.17;2.10;;;31.00;51.20;;;;;;5057588;28;20972;-76
2022/08/11 13:55:20;;;;;;;4.87;2.50;;;31.00;51.40;;;;;;5054372;28;20446;-77
2022/08/11 13:57:52;;;;;;;2.47;2.27;;;31.10;51.80;;;;;;5036649;28;20466;-78
2022/08/11 14:00:20;;;;;;;3.77;2.63;;;31.10;51.50;;;;;;5057602;28;20521;-76
2022/08/11 14:02:50;;;;;;;2.40;2.07;;;31.00;51.50;;;;;;5055321;28;20495;-78
2022/08/11 14:05:22;;;;;;;2.57;1.90;;;30.80;51.20;;;;;;5059926;28;20462;-76
2022/08/11 14:07:52;;;;;;;2.87;2.53;;;30.80;51.70;;;;;;5051523;28;20439;-77
2022/08/11 14:10:21;;;;;;;2.13;1.90;;;30.80;51.90;;;;;;5050897;28;20870;-78
2022/08/11 14:15:45;;;;;;;3.53;2.63;;;30.70;51.80;;;;;;5056839;28;20515;-75
2022/08/11 14:18:20;;;;;;;2.13;1.93;;;30.70;52.50;;;;;;5060978;28;20474;-77
2022/08/11 14:23:40;;;;;;;3.20;2.30;;;30.80;52.20;;;;;;5041656;28;20460;-76
2022/08/11 14:26:25;;;;;;;3.30;2.00;;;30.90;52.00;;;;;;5042980;28;20449;-75
2022/08/11 14:28:55;;;;;;;2.53;1.70;;;30.90;52.00;;;;;;5060793;28;20772;-76
2022/08/11 14:31:25;;;;;;;4.53;2.80;;;30.80;51.30;;;;;;5052740;28;20467;-75
2022/08/11 14:33:55;;;;;;;3.90;2.40;;;30.80;51.60;;;;;;5063820;28;20525;-79
2022/08/11 14:36:25;;;;;;;4.27;2.30;;;30.80;51.90;;;;;;5053441;28;20524;-76
2022/08/11 14:38:53;;;;;;;3.83;3.07;;;30.90;51.80;;;;;;5043324;28;20490;-77
2022/08/11 14:47:04;;;;;;;2.70;2.50;;;31.00;51.90;;;;;;5060254;28;20433;-77
2022/08/11 14:49:33;;;;;;;3.50;2.87;;;31.00;52.20;;;;;;5051612;28;20461;-76
2022/08/11 14:52:03;;;;;;;6.37;2.90;;;31.00;51.90;;;;;;5051333;28;20458;-76
2022/08/11 14:57:17;;;;;;;4.80;3.30;;;31.00;52.20;;;;;;5051947;28;20453;-76
2022/08/11 14:59:48;;;;;;;2.60;2.37;;;30.90;52.10;;;;;;5050232;28;20539;-76
2022/08/11 15:05:04;;;;;;;4.50;2.70;;;31.00;52.30;;;;;;5050603;28;20459;-78
2022/08/11 15:07:32;;;;;;;14.57;4.70;;;31.00;52.10;;;;;;5047607;28;21252;-77
2022/08/11 15:10:01;;;;;;;4.93;2.27;;;30.80;52.20;;;;;;5048758;28;20450;-75
2022/08/11 15:12:30;;;;;;;4.37;2.33;;;30.90;52.40;;;;;;5048749;28;20828;-77
2022/08/11 15:17:51;;;;;;;5.60;2.40;;;30.80;52.40;;;;;;4978751;28;20478;-76
2022/08/11 15:25:55;;;;;;;3.00;2.10;;;30.90;52.40;;;;;;5040296;28;20438;-77
2022/08/11 15:39:36;;;;;;;2.63;2.43;;;30.80;52.70;;;;;;5042838;28;20528;-78
2022/08/11 15:47:56;;;;;;;4.07;2.80;;;30.80;52.90;;;;;;5046974;28;20778;-77
2022/08/11 15:50:28;;;;;;;2.87;2.33;;;30.80;53.00;;;;;;5046679;28;20794;-77
2022/08/11 15:52:59;;;;;;;17.23;3.17;;;30.90;52.70;;;;;;5041232;28;20577;-78
2022/08/11 15:55:31;;;;;;;8.40;3.03;;;31.00;52.70;;;;;;5054469;28;20488;-78
2022/08/11 16:06:28;;;;;;;2.70;2.50;;;30.60;52.50;;;;;;5041611;28;20817;-81
2022/08/11 16:09:04;;;;;;;2.73;2.47;;;30.60;52.50;;;;;;5064539;28;20537;-76
2022/08/11 16:11:33;;;;;;;3.00;2.53;;;30.60;52.70;;;;;;5045584;28;20949;-77
2022/08/11 16:16:49;;;;;;;3.40;3.10;;;30.50;52.60;;;;;;5039693;28;20413;-81
2022/08/11 16:19:19;;;;;;;3.30;2.33;;;30.60;52.70;;;;;;5034549;28;20486;-80
2022/08/11 16:21:49;;;;;;;4.20;3.00;;;30.60;52.90;;;;;;5052754;28;20445;-79
2022/08/11 16:24:19;;;;;;;3.27;2.63;;;30.50;52.80;;;;;;5040106;28;20474;-76
2022/08/11 16:26:47;;;;;;;4.30;2.20;;;30.60;52.60;;;;;;5043304;28;20529;-74
2022/08/11 16:29:14;;;;;;;2.30;2.10;;;30.60;52.30;;;;;;5045657;28;20510;-76
2022/08/11 16:32:15;;;;;;;2.70;2.20;;;30.60;52.40;;;;;;5041464;28;20472;-76
2022/08/11 16:40:02;;;;;;;6.53;3.10;;;30.50;52.60;;;;;;5042998;28;20460;-75
2022/08/11 16:48:00;;;;;;;3.37;2.70;;;30.40;52.50;;;;;;5038007;28;20912;-78
2022/08/11 16:50:29;;;;;;;3.43;3.13;;;30.40;52.50;;;;;;5036458;28;20473;-78
2022/08/11 16:52:56;;;;;;;4.30;2.60;;;30.40;52.80;;;;;;5045794;28;20458;-76
2022/08/11 16:55:24;;;;;;;3.57;2.43;;;30.40;52.80;;;;;;5040037;28;20517;-77
2022/08/11 17:00:39;;;;;;;2.73;2.47;;;30.20;52.90;;;;;;5051808;28;21525;-73
2022/08/11 17:14:24;;;;;;;2.40;2.20;;;30.00;54.00;;;;;;5053188;28;20511;-74
2022/08/11 17:16:52;;;;;;;4.20;2.67;;;29.90;54.30;;;;;;5070074;28;20456;-75
2022/08/11 17:19:24;;;;;;;3.10;2.40;;;29.90;54.40;;;;;;5049072;28;20513;-76
2022/08/11 17:24:41;;;;;;;3.87;3.50;;;29.80;54.50;;;;;;5046058;28;20452;-77
2022/08/11 17:27:10;;;;;;;3.13;2.67;;;29.80;54.70;;;;;;5050264;28;20438;-77
2022/08/11 17:29:40;;;;;;;4.27;3.63;;;29.80;54.90;;;;;;5052523;28;20798;-77
2022/08/11 17:37:47;;;;;;;3.23;2.70;;;29.70;57.10;;;;;;5046576;28;20429;-76
2022/08/11 17:40:23;;;;;;;2.60;2.13;;;29.60;57.60;;;;;;5041262;28;20485;-75
2022/08/11 17:48:28;;;;;;;4.57;2.50;;;29.40;58.10;;;;;;5049512;28;20459;-77
2022/08/11 17:50:58;;;;;;;2.87;2.60;;;29.40;58.40;;;;;;5056459;28;20443;-76
2022/08/11 18:01:50;;;;;;;3.20;2.70;;;29.10;59.30;;;;;;5050719;28;20454;-74
2022/08/11 18:04:18;;;;;;;3.00;2.50;;;29.00;59.60;;;;;;5050997;28;20534;-77
2022/08/11 18:06:46;;;;;;;4.70;3.70;;;28.90;59.90;;;;;;5061620;28;20457;-76
